This is the latest recevied weather packets stored in our database for station/object G4ZMG. If no packets are shown the sender has not sent any weather packets the latest 10 day(s).
| Time | Temp. | Humidity | Pressure | Rain* | Wind** | Luminosity | Snow |
|---|---|---|---|---|---|---|---|
| 1777650037 | 13.89° C | 89% | 1017.7 hPa | 0 mm | - | 279 W/m² | - |
| 1777649427 | 13.33° C | 88% | 1017.7 hPa | 0 mm | - | 244 W/m² | - |
| 1777648812 | 13.33° C | 87% | 1017.7 hPa | 0 mm | - | 304 W/m² | - |
| 1777648208 | 13.89° C | 85% | 1017.6 hPa | 0 mm | - | 172 W/m² | - |
| 1777647640 | 13.89° C | 81% | 1017.7 hPa | 0 mm | - | 142 W/m² | - |
| 1777647035 | 15° C | 75% | 1017.7 hPa | 0 mm | - | 111 W/m² | - |
| 1777646424 | 15.56° C | 70% | 1017.7 hPa | 0 mm | - | 76 W/m² | - |
| 1777645806 | 16.67° C | 65% | 1017.7 hPa | 0 mm | - | 207 W/m² | - |
| 1777645204 | 17.78° C | 64% | 1017.8 hPa | 0 mm | - | 241 W/m² | - |
| 1777644646 | 18.33° C | 64% | 1017.9 hPa | 0 mm | - | 436 W/m² | - |
| 1777644026 | 18.33° C | 63% | 1017.8 hPa | 0 mm | - | 390 W/m² | - |
| 1777643409 | 19.44° C | 61% | 1017.8 hPa | 0 mm | - | 301 W/m² | - |
| 1777642822 | 20.56° C | 62% | 1017.7 hPa | 0 mm | - | 893 W/m² | - |
| 1777642202 | 20.56° C | 64% | 1017.6 hPa | 0 mm | - | 459 W/m² | - |
| 1777641646 | 20.56° C | 63% | 1017.7 hPa | 0 mm | - | 378 W/m² | - |
| 1777641042 | 20.56° C | 63% | 1017.6 hPa | 0 mm | - | 501 W/m² | - |
| 1777639843 | 20.56° C | 60% | 1017.7 hPa | 0 mm | - | 438 W/m² | - |
| 1777639228 | 21.11° C | 59% | 1017.7 hPa | 0 mm | - | 515 W/m² | - |
| 1777638010 | 21.67° C | 58% | 1017.8 hPa | 0 mm | - | 489 W/m² | - |
| 1777636835 | 20.56° C | 59% | 1017.8 hPa | 0 mm | - | 594 W/m² | - |
| 1777635602 | 20.56° C | 59% | 1017.8 hPa | 0 mm | - | 490 W/m² | - |
| 1777635040 | 20° C | 60% | 1017.8 hPa | 0 mm | - | 545 W/m² | - |
| 1777634433 | 20.56° C | 59% | 1018 hPa | 0 mm | - | 707 W/m² | - |
| 1777633822 | 20° C | 61% | 1017.9 hPa | 0 mm | - | 596 W/m² | - |
| 1777633224 | 20.56° C | 58% | 1018 hPa | 0 mm | - | 531 W/m² | - |
* Rain latest hour (hover to see other rain measurements)
** Current wind speed in m/s (hover to see current wind gust speed)